1967 Tropical Cyclone CYNTHIA (1967073S15138)


IBTrACS version v04r00. Visit IBTrACS website for data access.
Please direct all questions to the IBTrACS Q and A forum

Storm track - Intensity - Wind Radii - Intensity Data - Source Data - All data

Summary Information

Storm ID 1967073S15138
Start Mar 13 23Z
Landfall Mar 15 03Z, Mar 15 11Z
Max Intensity 40 kt (Mar 14 18Z), 993 mb (Mar 14 21Z)
End Mar 19 10Z
ATCF IDs ,SH251967
Track status Best track data.

Storm track plot

Map of storm track

Intensity plots

Map of storm track

Radial wind information

No radial wind information for this storm


Position and Intensity Table

BASIN ISO_TIME_________ NATURE LAT LON WMO PRES BOM PRES DS824 WIND DS824 PRES NEUMANN WIND NEUMANN PRES
degrees north degrees east mb mb kts mb kts mb
SP 1967-03-13 23:00:00 NR -14.60 137.60
SP 23:30:00 NR -14.68 137.69 999 999
SP 1967-03-14 00:00:00 TS -14.66 137.70 998 30 999
SP 03:00:00 TS -14.52 137.61 998 31 998
SP 06:00:00 TS -14.42 137.55 997 32 997 35 997
SP 09:00:00 TS -14.32 137.48 996 33 996 35 996
SP 11:00:00 TS -14.26 137.44 996 34 996 35 996
SP 11:30:00 TS -14.26 137.44 996 996 34 996 35 996
SP 12:00:00 TS -14.24 137.43 995 35 996 35 996
SP 15:00:00 TS -14.15 137.32 995 36 995 37 995
SP 18:00:00 TS -14.06 137.19 994 37 994 40 994
SP 21:00:00 TS -13.98 137.06 993 38 993 40 993
SP 23:00:00 TS -13.92 136.95 993 39 993 40 993
SP 23:30:00 TS -13.91 136.91 993 993 39 993 40 993
SP 1967-03-15 00:00:00 TS -13.89 136.88 993 40 993 40 993
SP 03:00:00 TS -13.79 136.63 993 40 993 40 993
SP 06:00:00 TS -13.66 136.36 993 40 993 40 993
SP 09:00:00 TS -13.51 136.11 993 40 993 40 993
SP 11:00:00 TS -13.38 135.98 993 40 993 40 993
SP 11:30:00 TS -13.34 135.96 994 994 40 993 40 993
SP 12:00:00 TS -13.29 135.94 994 40 994 40 994
SP 14:30:00 TS -13.01 135.86 994 994 38 994 37 994
SP 15:00:00 TS -12.95 135.85 994 38 994 37 994
SP 18:00:00 TS -12.53 135.84 995 37 995 35 995
SP 20:30:00 TS -12.20 135.94 997 997 36 996 35 995
SP 21:00:00 TS -12.14 135.98 997 36 996 35 996
SP 23:00:00 TS -11.95 136.18 997 35 996 35 996
SP 23:30:00 TS -11.91 136.23 997 997 35 996 35 996
SP 1967-03-16 00:00:00 TS -11.89 136.27 997 35 997 35 997
SP 02:00:00 TS -11.85 136.48 997 997 35 996 35 996
SP 03:00:00 TS -11.86 136.60 996 35 996 35 996
SP 06:00:00 TS -11.95 136.99 996 35 996 35 996
SP 08:00:00 TS -12.05 137.24 996 996 35 996 35 996
SP 09:00:00 TS -12.12 137.34 996 35 996 35 996
SP 11:00:00 TS -12.27 137.50 996 35 996 35 996
SP 11:30:00 TS -12.31 137.52 996 996 35 996 35 996
SP 12:00:00 TS -12.35 137.54 995 35 996 35 996
SP 15:00:00 TS -12.60 137.50 995 36 995 37 995
SP 18:00:00 TS -12.84 137.35 995 37 995 40 995
SP 21:00:00 TS -13.05 137.22 995 38 995 40 995
SP 23:00:00 TS -13.14 137.17 995 39 995 40 995
SP 23:30:00 TS -13.14 137.17 995 995 39 995 40 995
SP 1967-03-17 00:00:00 TS -13.15 137.17 995 40 995 40 995
SP 02:30:00 TS -13.07 137.25 995 995 40 995 40 995
SP 03:00:00 TS -13.05 137.27 995 40 995 40 995
SP 06:00:00 TS -12.88 137.48 995 40 995 40 995
SP 08:00:00 TS -12.80 137.65 995 995 40 995 40 995
SP 09:00:00 TS -12.78 137.74 995 40 995 40 995
SP 11:00:00 TS -12.77 137.93 995 40 995 40 995
SP 11:30:00 TS -12.78 137.98 995 995 40 995 40 995
SP 12:00:00 TS -12.79 138.02 995 40 995 40 995
SP 15:00:00 TS -12.92 138.31 995 37 995 40 995
SP 17:30:00 TS -13.11 138.53 996 996 35 995 40 995
SP 18:00:00 TS -13.15 138.57 996 35 996 40 995
SP 21:00:00 TS -13.48 138.77 996 37 996
SP 23:00:00 TS -13.71 138.85 997 997 35 996
SP 1967-03-18 00:00:00 TS -13.80 138.87 997 35 997
SP 03:00:00 TS -14.00 138.88 997 35 997
SP 06:00:00 TS -14.16 138.81 997 35 997
SP 09:00:00 TS -14.36 138.71 997 35 997
SP 11:00:00 TS -14.48 138.62 997 35 997
SP 11:30:00 TS -14.51 138.60 998 998 35 997
SP 12:00:00 TS -14.56 138.58 998 35 998 35 998
SP 15:00:00 TS -14.74 138.42 998 35 998 35 998
SP 18:00:00 TS -14.93 138.23 998 35 998 35 998
SP 21:00:00 TS -15.13 138.01 998 35 998 35 998
SP 23:00:00 TS -15.24 137.85 998 35 998 35 998
SP 23:30:00 TS -15.29 137.80 998 998 35 998 35 998
SP 1967-03-19 00:00:00 TS -15.31 137.76 998 35 998 35 998
SP 03:00:00 TS -15.48 137.56 999 32 999
SP 06:00:00 TS -15.65 137.38 1000 30 1000
SP 09:00:00 NR -15.84 137.15 1001
SP 10:00:00 NR -15.90 137.10 1002 1002

Source Information

Agency Information
USA bsh251967.txt
TOKYO
CMA
HKO
NEWDELHI
REUNION
BOM IDCKMSTM0S.csv:Line=4752:CYNTHIA
NADI
WELLINGTON
DS824 aus_area.dat:403:CYNTHIA
TD9636 cons_worldwide_trop_cyclone_18710101-19891231-006:Line=7745
TD9635
NEUMANN tracks.sh:Storm=194:CYNTHIA:BSH2567:BM361
MLC

All available IBTrACS Data

SEASON BASIN SUBBASIN ISO_TIME_________ NATURE LAT LON WMO PRES WMO AGENCY DIST2LAND LANDFALL IFLAG USA AGENCY USA ATCF_ID USA LAT USA LON USA SSHS BOM LAT BOM LON BOM PRES BOM PRES_METHOD DS824 LAT DS824 LON DS824 STAGE DS824 WIND DS824 PRES TD9636 LAT TD9636 LON TD9636 STAGE NEUMANN LAT NEUMANN LON NEUMANN CLASS NEUMANN WIND NEUMANN PRES STORM SPEED STORM DIR
Year degrees north degrees east mb km km degrees north degrees east 1 degrees north degrees east mb degrees north degrees east kts mb degrees north degrees east degrees north degrees east kts mb kts degrees
1967 SP EA 1967-03-13 23:00:00 NR -14.60 137.60 72 72 __________O___ -1 -14.60 137.60 7 14 133
1967 SP EA 23:30:00 NR -14.68 137.69 999 bom 87 87 ______O___P___ -1 -14.90 137.90 999 -14.57 137.59 7 7 123
1967 SP EA 1967-03-14 00:00:00 TS -14.66 137.70 87 68 O_____P__OP___ jtwc_sh SH251967 -14.50 137.60 -1 -14.88 137.89 998 -14.90 137.90 TC 30 999 -14.54 137.57 7 3 334
1967 SP EA 03:00:00 TS -14.52 137.61 68 65 P_____P__PP___ SH251967 -14.34 137.49 -1 -14.78 137.80 998 -14.80 137.81 TC 31 998 -14.37 137.49 7 3 329
1967 SP EA 06:00:00 TS -14.42 137.55 65 53 O_____P__PP_O_ jtwc_sh SH251967 -14.20 137.40 -1 -14.68 137.70 997 -14.69 137.72 TC 32 997 -14.22 137.41 7 -14.70 137.90 TC 35 997 2 330
1967 SP EA 09:00:00 TS -14.32 137.48 53 43 P_____P__PP_P_ SH251967 -14.09 137.35 -1 -14.58 137.60 996 -14.59 137.62 TC 33 996 -14.08 137.34 7 -14.60 137.81 TC 35 996 2 326
1967 SP EA 11:00:00 TS -14.26 137.44 43 43 P_____P__PO_P_ SH251967 -14.03 137.32 -1 -14.52 137.52 996 -14.53 137.54 TC 34 996 -14.00 137.30 7 -14.53 137.74 TC 35 996 2 327
1967 SP EA 11:30:00 TS -14.26 137.44 996 bom 43 43 P_____O__PP_P_ SH251967 -14.02 137.31 -1 -14.50 137.50 996 -14.52 137.52 TC 34 996 -13.98 137.29 7 -14.52 137.72 TC 35 996 2 0
1967 SP EA 12:00:00 TS -14.24 137.43 44 34 O_____P__OP_O_ jtwc_sh SH251967 -14.00 137.30 -1 -14.49 137.48 995 -14.50 137.50 TC 35 996 -13.97 137.28 7 -14.50 137.70 TC 35 996 3 313
1967 SP EA 15:00:00 TS -14.15 137.32 39 31 P_____P__PP_P_ SH251967 -13.89 137.22 -1 -14.40 137.34 995 -14.41 137.36 TC 36 995 -13.88 137.22 7 -14.40 137.56 TC 37 995 3 309
1967 SP EA 18:00:00 TS -14.06 137.19 31 31 O_____P__PP_O_ jtwc_sh SH251967 -13.80 137.10 -1 -14.31 137.19 994 -14.32 137.22 TC 37 994 -13.81 137.15 7 -14.30 137.40 TC 40 994 3 303
1967 SP EA 21:00:00 TS -13.98 137.06 31 15 P_____P__PP_P_ SH251967 -13.75 136.99 -1 -14.20 137.03 993 -14.22 137.06 TC 38 993 -13.75 137.02 7 -14.21 137.25 TC 40 993 3 299
1967 SP EA 23:00:00 TS -13.92 136.95 10 10 P_____P__PO_P_ SH251967 -13.72 136.88 -1 -14.12 136.93 993 -14.14 136.95 TC 39 993 -13.70 136.90 7 -14.14 137.15 TC 40 993 4 297
1967 SP EA 23:30:00 TS -13.91 136.91 993 bom 10 10 P_____O__PP_P_ SH251967 -13.71 136.84 -1 -14.10 136.90 993 4 -14.12 136.93 TC 39 993 -13.69 136.85 7 -14.12 137.13 TC 40 993 4 293
1967 SP EA 1967-03-15 00:00:00 TS -13.89 136.88 10 0 O_____P__OP_O_ jtwc_sh SH251967 -13.70 136.80 -1 -14.08 136.87 993 -14.10 136.90 TC 40 993 -13.68 136.80 7 -14.10 137.10 TC 40 993 5 294
1967 SP EA 03:00:00 TS -13.79 136.63 0 0 P_____P__PP_P_ SH251967 -13.62 136.47 -1 -13.92 136.71 993 -13.97 136.71 TC 40 993 -13.64 136.46 7 -13.96 136.95 TC 40 993 6 295
1967 SP EA 06:00:00 TS -13.66 136.36 21 21 O_____P__PP_O_ jtwc_sh SH251967 -13.50 136.10 -1 -13.75 136.55 993 -13.82 136.52 TC 40 993 -13.57 136.09 7 -13.80 136.80 TC 40 993 6 299
1967 SP EA 09:00:00 TS -13.51 136.11 21 10 P_____P__PP_P_ SH251967 -13.40 135.75 -1 -13.56 136.40 993 -13.63 136.38 TC 40 993 -13.44 135.76 7 -13.62 136.64 TC 40 993 6 307
1967 SP EA 11:00:00 TS -13.38 135.98 10 10 P_____P__PO_P_ SH251967 -13.29 135.56 -1 -13.43 136.32 993 -13.48 136.32 TC 40 993 -13.30 135.60 7 -13.48 136.54 TC 40 993 6 319
1967 SP EA 11:30:00 TS -13.34 135.96 994 bom 0 0 P_____O__PP_P_ SH251967 -13.25 135.53 -1 -13.40 136.30 994 -13.44 136.31 TC 40 993 -13.24 135.57 7 -13.44 136.52 TC 40 993 6 331
1967 SP EA 12:00:00 TS -13.29 135.94 0 0 O_____P__OP_O_ jtwc_sh SH251967 -13.20 135.50 -1 -13.37 136.28 994 -13.40 136.30 TC 40 994 -13.18 135.55 7 -13.40 136.50 TC 40 994 7 343
1967 SP EA 14:30:00 TS -13.01 135.86 994 bom 0 0 P_____O__PP_P_ SH251967 -12.85 135.43 -1 -13.20 136.20 994 -13.10 136.29 TC 38 994 -12.84 135.47 7 -13.22 136.36 TC 37 994 7 347
1967 SP EA 15:00:00 TS -12.95 135.85 0 0 P_____P__PP_P_ SH251967 -12.77 135.43 -1 -13.15 136.16 994 -13.04 136.29 TC 38 994 -12.76 135.46 7 -13.18 136.34 TC 37 994 8 0
1967 SP EA 18:00:00 TS -12.53 135.84 0 0 O_____P__PP_O_ jtwc_sh SH251967 -12.30 135.50 -1 -12.75 135.92 995 -12.64 136.36 TC 37 995 -12.30 135.47 7 -12.90 136.30 TC 35 995 8 6
1967 SP EA 20:30:00 TS -12.20 135.94 997 bom 0 0 P_____O__PP_P_ SH251967 -11.99 135.57 -1 -12.40 136.00 997 -12.35 136.47 TC 36 996 -11.96 135.55 7 -12.53 136.44 TC 35 995 8 19
1967 SP EA 21:00:00 TS -12.14 135.98 15 15 P_____P__PP_P_ SH251967 -11.93 135.60 -1 -12.34 136.10 997 -12.31 136.50 TC 36 996 -11.90 135.58 7 -12.46 136.48 TC 35 996 8 43
1967 SP EA 23:00:00 TS -11.95 136.18 31 31 P_____P__PO_P_ SH251967 -11.76 135.72 -1 -12.13 136.60 997 -12.15 136.62 TC 35 996 -11.70 135.70 7 -12.19 136.69 TC 35 996 8 47
1967 SP EA 23:30:00 TS -11.91 136.23 997 bom 31 24 P_____O__PP_P_ SH251967 -11.73 135.76 -1 -12.10 136.70 997 -12.12 136.66 TC 35 996 -11.67 135.74 7 -12.14 136.74 TC 35 996 7 59
1967 SP EA 1967-03-16 00:00:00 TS -11.89 136.27 24 11 O_____P__OP_O_ jtwc_sh SH251967 -11.70 135.80 -1 -12.08 136.76 997 -12.10 136.70 TC 35 997 -11.65 135.79 7 -12.10 136.80 TC 35 997 6 76
1967 SP EA 02:00:00 TS -11.85 136.48 997 bom 11 11 P_____O__PP_P_ SH251967 -11.64 136.01 -1 -12.10 136.90 997 -12.10 136.92 TC 35 996 -11.60 136.00 7 -12.04 137.02 TC 35 996 6 85
1967 SP EA 03:00:00 TS -11.86 136.60 15 15 P_____P__PP_P_ SH251967 -11.64 136.13 -1 -12.10 137.03 996 -12.12 137.04 TC 35 996 -11.60 136.11 7 -12.05 137.13 TC 35 996 8 101
1967 SP EA 06:00:00 TS -11.95 136.99 33 33 O_____P__PP_O_ jtwc_sh SH251967 -11.70 136.50 -1 -12.16 137.52 996 -12.29 137.43 TC 35 996 -11.66 136.49 7 -12.20 137.50 TC 35 996 8 107
1967 SP EA 08:00:00 TS -12.05 137.24 996 bom 40 39 P_____O__PP_P_ SH251967 -11.74 136.72 -1 -12.30 137.80 996 -12.44 137.67 TC 35 996 -11.74 136.73 7 -12.34 137.79 TC 35 996 8 116
1967 SP EA 09:00:00 TS -12.12 137.34 39 39 P_____P__PP_P_ SH251967 -11.77 136.81 -1 -12.43 137.89 996 -12.53 137.78 TC 35 996 -11.79 136.83 7 -12.42 137.92 TC 35 996 7 131
1967 SP EA 11:00:00 TS -12.27 137.50 54 54 P_____P__PO_P_ SH251967 -11.85 136.96 -1 -12.73 137.99 996 -12.71 137.95 TC 35 996 -11.90 137.00 7 -12.61 138.14 TC 35 996 6 138
1967 SP EA 11:30:00 TS -12.31 137.52 996 bom 54 54 P_____O__PP_P_ SH251967 -11.87 136.98 -1 -12.80 138.00 996 -12.76 137.98 TC 35 996 -11.92 137.01 7 -12.65 138.18 TC 35 996 5 154
1967 SP EA 12:00:00 TS -12.35 137.54 55 55 O_____P__OP_O_ jtwc_sh SH251967 -11.90 137.00 -1 -12.87 138.01 995 -12.80 138.00 TC 35 996 -11.95 137.02 7 -12.70 138.20 TC 35 996 5 184
1967 SP EA 15:00:00 TS -12.60 137.50 63 62 P_____P__PP_P_ SH251967 -12.09 136.98 -1 -13.26 137.96 995 -13.08 137.92 TC 36 995 -12.14 137.00 7 -12.95 138.13 TC 37 995 5 200
1967 SP EA 18:00:00 TS -12.84 137.35 68 54 O_____P__PP_O_ jtwc_sh SH251967 -12.30 136.90 -1 -13.56 137.77 995 -13.36 137.72 TC 37 995 -12.34 136.92 7 -13.20 137.90 TC 40 995 5 211
1967 SP EA 21:00:00 TS -13.05 137.22 55 55 P_____P__PP_P_ SH251967 -12.49 136.89 -1 -13.72 137.51 995 -13.58 137.48 TC 38 995 -12.52 136.87 7 -13.52 137.69 TC 40 995 4 211
1967 SP EA 23:00:00 TS -13.14 137.17 55 55 P_____P__PO_P_ SH251967 -12.58 136.94 -1 -13.72 137.34 995 -13.68 137.35 TC 39 995 -12.60 136.90 7 -13.67 137.55 TC 40 995 3 208
1967 SP EA 23:30:00 TS -13.14 137.17 995 bom 55 55 P_____O__PP_P_ SH251967 -12.59 136.97 -1 -13.70 137.30 995 -13.69 137.32 TC 39 995 -12.60 136.93 7 -13.69 137.52 TC 40 995 1 0
1967 SP EA 1967-03-17 00:00:00 TS -13.15 137.17 55 55 O_____P__OP_O_ jtwc_sh SH251967 -12.60 137.00 -1 -13.68 137.26 995 -13.70 137.30 TC 40 995 -12.60 136.97 7 -13.70 137.50 TC 40 995 2 47
1967 SP EA 02:30:00 TS -13.07 137.25 995 bom 55 55 P_____O__PP_P_ SH251967 -12.58 137.25 -1 -13.50 137.10 995 -13.61 137.27 TC 40 995 -12.57 137.21 7 -13.60 137.40 TC 40 995 3 44
1967 SP EA 03:00:00 TS -13.05 137.27 65 65 P_____P__PP_P_ SH251967 -12.57 137.31 -1 -13.45 137.09 995 -13.58 137.27 TC 40 995 -12.56 137.26 7 -13.56 137.39 TC 40 995 5 51
1967 SP EA 06:00:00 TS -12.88 137.48 83 77 O_____P__PP_O_ jtwc_sh SH251967 -12.50 137.70 -1 -13.14 137.15 995 -13.37 137.32 TC 40 995 -12.49 137.62 7 -13.30 137.40 TC 40 995 5 56
1967 SP EA 08:00:00 TS -12.80 137.65 995 bom 85 85 P_____O__PP_P_ SH251967 -12.49 137.92 -1 -13.00 137.30 995 -13.21 137.41 TC 40 995 -12.46 137.87 7 -13.17 137.48 TC 40 995 5 68
1967 SP EA 09:00:00 TS -12.78 137.74 94 94 P_____P__PP_P_ SH251967 -12.50 138.02 -1 -12.98 137.40 995 -13.14 137.46 TC 40 995 -12.46 137.99 7 -13.11 137.54 TC 40 995 6 84
1967 SP EA 11:00:00 TS -12.77 137.93 112 112 P_____P__PO_P_ SH251967 -12.55 138.21 -1 -12.99 137.64 995 -13.03 137.61 TC 40 995 -12.50 138.20 7 -13.02 137.70 TC 40 995 6 90
1967 SP EA 11:30:00 TS -12.78 137.98 995 bom 122 122 P_____O__PP_P_ SH251967 -12.57 138.26 -1 -13.00 137.70 995 -13.01 137.65 TC 40 995 -12.53 138.24 7 -13.01 137.75 TC 40 995 6 102
1967 SP EA 12:00:00 TS -12.79 138.02 122 122 O_____P__OP_O_ jtwc_sh SH251967 -12.60 138.30 -1 -13.00 137.76 995 -13.00 137.70 TC 40 995 -12.56 138.28 7 -13.00 137.80 TC 40 995 6 113
1967 SP EA 15:00:00 TS -12.92 138.31 156 156 P_____P__PP_P_ SH251967 -12.86 138.54 -1 -12.99 138.12 995 -13.01 138.05 TC 37 995 -12.83 138.50 7 -12.97 138.14 TC 40 995 6 122
1967 SP EA 17:30:00 TS -13.11 138.53 996 bom 185 185 P_____O__PP_P_ SH251967 -13.14 138.68 -1 -13.10 138.40 996 -13.08 138.35 TC 35 995 -13.10 138.64 7 -13.06 138.44 TC 40 995 7 133
1967 SP EA 18:00:00 TS -13.15 138.57 195 192 O_____P__OP_O_ jtwc_sh SH251967 -13.20 138.70 -1 -13.15 138.46 996 -13.10 138.40 TC 35 996 -13.16 138.67 7 -13.10 138.50 TC 40 995 8 149
1967 SP EA 21:00:00 TS -13.48 138.77 208 205 P_____P__PP_P_ SH251967 -13.53 138.79 -1 -13.59 138.76 996 -13.27 138.63 TC -13.50 138.77 7 -13.48 138.86 TC 37 996 7 154
1967 SP EA 23:00:00 TS -13.71 138.85 997 bom 205 205 P_____O__PO_P_ SH251967 -13.72 138.80 -1 -13.90 138.90 997 -13.43 138.74 TC -13.70 138.80 7 -13.77 139.04 TC 35 996 7 162
1967 SP EA 1967-03-18 00:00:00 TS -13.80 138.87 212 207 O_____P__PP_O_ jtwc_sh SH251967 -13.80 138.80 -1 -14.01 138.95 997 -13.52 138.77 TC -13.77 138.81 7 -13.90 139.10 TC 35 997 4 173
1967 SP EA 03:00:00 TS -14.00 138.88 207 194 P_____P__PP_P_ SH251967 -13.91 138.77 -1 -14.28 138.99 997 -13.81 138.83 TC -13.94 138.78 7 -14.13 139.11 TC 35 997 4 191
1967 SP EA 06:00:00 TS -14.16 138.81 194 183 O_____P__PP_O_ jtwc_sh SH251967 -14.00 138.70 -1 -14.46 138.92 997 -14.13 138.82 TC -14.08 138.70 7 -14.30 139.00 TC 35 997 4 205
1967 SP EA 09:00:00 TS -14.36 138.71 183 173 P_____P__PP_P_ SH251967 -14.19 138.62 -1 -14.60 138.76 997 -14.43 138.74 TC -14.21 138.59 7 -14.51 138.92 TC 35 997 4 209
1967 SP EA 11:00:00 TS -14.48 138.62 173 173 P_____P__PO_P_ SH251967 -14.33 138.54 -1 -14.68 138.63 997 -14.62 138.65 TC -14.30 138.50 7 -14.64 138.85 TC 35 997 5 213
1967 SP EA 11:30:00 TS -14.51 138.60 998 bom 173 173 P_____O__PP_P_ SH251967 -14.37 138.52 -1 -14.70 138.60 998 -14.66 138.63 TC -14.32 138.48 7 -14.67 138.82 TC 35 997 5 211
1967 SP EA 12:00:00 TS -14.56 138.58 175 157 O_____P__OP_O_ jtwc_sh SH251967 -14.40 138.50 -1 -14.73 138.57 998 -14.70 138.60 TC 35 998 -14.35 138.46 7 -14.70 138.80 TC 35 998 5 216
1967 SP EA 15:00:00 TS -14.74 138.42 157 145 P_____P__PP_P_ SH251967 -14.57 138.36 -1 -14.88 138.37 998 -14.91 138.42 TC 35 998 -14.51 138.33 7 -14.86 138.62 TC 35 998 5 222
1967 SP EA 18:00:00 TS -14.93 138.23 145 127 O_____P__PP_O_ jtwc_sh SH251967 -14.70 138.20 -1 -15.03 138.14 998 -15.07 138.20 TC 35 998 -14.69 138.21 7 -15.00 138.40 TC 35 998 6 226
1967 SP EA 21:00:00 TS -15.13 138.01 127 113 ______P__PP_P_ SH251967 -1 -15.17 137.89 998 -15.19 137.95 TC 35 998 -14.87 138.08 7 -15.15 138.14 TC 35 998 6 230
1967 SP EA 23:00:00 TS -15.24 137.85 113 99 ______P__PO_P_ SH251967 -1 -15.27 137.74 998 -15.26 137.79 TC 35 998 -15.00 138.00 7 -15.25 137.97 TC 35 998 6 232
1967 SP EA 23:30:00 TS -15.29 137.80 998 bom 99 99 ______O__P__P_ SH251967 -1 -15.30 137.70 998 -15.28 137.74 TC 35 998 7 -15.28 137.94 TC 35 998 7 230
1967 SP EA 1967-03-19 00:00:00 TS -15.31 137.76 99 70 ______P__O__O_ -1 -15.33 137.66 998 -15.30 137.70 TC 35 998 7 -15.30 137.90 TC 35 998 5 231
1967 SP EA 03:00:00 TS -15.48 137.56 70 49 ______P_____P_ -1 -15.49 137.47 999 TC 7 -15.45 137.73 TC 32 999 5 228
1967 SP EA 06:00:00 TS -15.65 137.38 49 22 ______P_____O_ -1 -15.66 137.30 1000 TC 7 -15.60 137.60 TC 30 1000 5 227
1967 SP EA 09:00:00 NR -15.84 137.15 22 11 ______P_______ -1 -15.84 137.15 1001 TC 7 TC 6 226
1967 SP EA 10:00:00 NR -15.90 137.10 1002 bom 11 ______O_______ -1 -15.90 137.10 1002 TC 7 TC 5 209